sensor_id;sensor_type;location;lat;lon;timestamp;pressure;altitude;pressure_sealevel;temperature;humidity
53758;BME280;39674;59.860;30.672;2023-06-14T00:02:12;101716.13;;;12.03;71.05
53758;BME280;39674;59.860;30.672;2023-06-14T00:04:41;101599.19;;;11.29;71.60
53758;BME280;39674;59.860;30.672;2023-06-14T00:07:10;101658.59;;;11.64;70.81
53758;BME280;39674;59.860;30.672;2023-06-14T00:09:42;101670.75;;;11.68;70.47
53758;BME280;39674;59.860;30.672;2023-06-14T00:12:14;101716.38;;;11.97;70.21
53758;BME280;39674;59.860;30.672;2023-06-14T00:14:46;101681.91;;;11.77;70.57
53758;BME280;39674;59.860;30.672;2023-06-14T00:17:22;101667.59;;;11.60;72.13
53758;BME280;39674;59.860;30.672;2023-06-14T00:19:55;101693.66;;;11.69;71.83
53758;BME280;39674;59.860;30.672;2023-06-14T00:22:25;101721.59;;;11.77;71.80
53758;BME280;39674;59.860;30.672;2023-06-14T00:24:56;101718.16;;;11.75;71.52
53758;BME280;39674;59.860;30.672;2023-06-14T00:27:26;101592.41;;;10.99;72.12
53758;BME280;39674;59.860;30.672;2023-06-14T00:29:59;101558.09;;;10.75;71.50
53758;BME280;39674;59.860;30.672;2023-06-14T00:32:28;101718.03;;;11.55;73.27
53758;BME280;39674;59.860;30.672;2023-06-14T00:34:56;101664.63;;;11.23;73.55
53758;BME280;39674;59.860;30.672;2023-06-14T00:37:27;101692.25;;;11.38;72.37
53758;BME280;39674;59.860;30.672;2023-06-14T00:39:55;101678.13;;;11.16;73.78
53758;BME280;39674;59.860;30.672;2023-06-14T00:42:27;101720.34;;;11.41;72.91
53758;BME280;39674;59.860;30.672;2023-06-14T00:45:07;101722.69;;;11.49;73.16
53758;BME280;39674;59.860;30.672;2023-06-14T00:47:37;101725.56;;;11.43;73.94
53758;BME280;39674;59.860;30.672;2023-06-14T00:50:10;101721.34;;;11.38;74.47
53758;BME280;39674;59.860;30.672;2023-06-14T00:52:39;101718.94;;;11.32;75.07
53758;BME280;39674;59.860;30.672;2023-06-14T00:55:08;101713.81;;;11.28;75.75
53758;BME280;39674;59.860;30.672;2023-06-14T00:57:37;101633.00;;;10.74;74.58
53758;BME280;39674;59.860;30.672;2023-06-14T01:00:12;101679.63;;;10.99;75.89
53758;BME280;39674;59.860;30.672;2023-06-14T01:02:41;101711.56;;;11.17;76.38
53758;BME280;39674;59.860;30.672;2023-06-14T01:05:10;101716.75;;;11.20;75.46
53758;BME280;39674;59.860;30.672;2023-06-14T01:07:55;101719.28;;;11.23;76.29
53758;BME280;39674;59.860;30.672;2023-06-14T01:10:39;101714.94;;;11.22;76.15
53758;BME280;39674;59.860;30.672;2023-06-14T01:13:15;101659.88;;;10.86;76.08
53758;BME280;39674;59.860;30.672;2023-06-14T01:15:51;101705.44;;;11.16;76.04
53758;BME280;39674;59.860;30.672;2023-06-14T01:18:20;101708.16;;;11.15;76.61
53758;BME280;39674;59.860;30.672;2023-06-14T01:20:50;101662.81;;;10.78;75.62
53758;BME280;39674;59.860;30.672;2023-06-14T01:23:26;101713.31;;;11.18;77.09
53758;BME280;39674;59.860;30.672;2023-06-14T01:26:01;101716.25;;;11.10;77.42
53758;BME280;39674;59.860;30.672;2023-06-14T01:28:35;101701.59;;;11.01;76.73
53758;BME280;39674;59.860;30.672;2023-06-14T01:31:04;101696.56;;;10.94;78.59
53758;BME280;39674;59.860;30.672;2023-06-14T01:33:35;101674.34;;;10.75;78.62
53758;BME280;39674;59.860;30.672;2023-06-14T01:36:05;101721.59;;;11.08;78.75
53758;BME280;39674;59.860;30.672;2023-06-14T01:38:38;101717.09;;;11.11;78.50
53758;BME280;39674;59.860;30.672;2023-06-14T01:41:09;101720.56;;;11.13;78.36
53758;BME280;39674;59.860;30.672;2023-06-14T01:43:39;101727.56;;;11.14;79.54
53758;BME280;39674;59.860;30.672;2023-06-14T01:46:08;101669.69;;;10.82;79.96
53758;BME280;39674;59.860;30.672;2023-06-14T01:48:38;101686.06;;;10.92;79.71
53758;BME280;39674;59.860;30.672;2023-06-14T01:51:08;101735.19;;;11.21;79.12
53758;BME280;39674;59.860;30.672;2023-06-14T01:53:38;101730.56;;;11.28;79.23
53758;BME280;39674;59.860;30.672;2023-06-14T01:56:11;101649.53;;;10.80;80.18
53758;BME280;39674;59.860;30.672;2023-06-14T01:58:40;101718.34;;;11.24;80.94
53758;BME280;39674;59.860;30.672;2023-06-14T02:01:08;101730.19;;;11.37;80.28
53758;BME280;39674;59.860;30.672;2023-06-14T02:03:38;101727.31;;;11.44;79.27
53758;BME280;39674;59.860;30.672;2023-06-14T02:06:07;101719.25;;;11.47;79.95
53758;BME280;39674;59.860;30.672;2023-06-14T02:08:38;101714.75;;;11.49;79.91
53758;BME280;39674;59.860;30.672;2023-06-14T02:11:07;101694.88;;;11.38;80.58
53758;BME280;39674;59.860;30.672;2023-06-14T02:13:36;101665.41;;;11.26;79.83
53758;BME280;39674;59.860;30.672;2023-06-14T02:16:04;101719.44;;;11.64;80.67
53758;BME280;39674;59.860;30.672;2023-06-14T02:18:32;101671.50;;;11.50;80.22
53758;BME280;39674;59.860;30.672;2023-06-14T02:21:01;101709.28;;;11.76;79.10
53758;BME280;39674;59.860;30.672;2023-06-14T02:23:30;101719.38;;;11.88;81.08
53758;BME280;39674;59.860;30.672;2023-06-14T02:26:01;101721.00;;;11.92;78.78
53758;BME280;39674;59.860;30.672;2023-06-14T02:28:30;101673.28;;;11.71;80.18
53758;BME280;39674;59.860;30.672;2023-06-14T02:30:58;101668.91;;;11.70;77.90
53758;BME280;39674;59.860;30.672;2023-06-14T02:33:27;101595.88;;;11.23;78.13
53758;BME280;39674;59.860;30.672;2023-06-14T02:35:56;101711.75;;;12.02;78.77
53758;BME280;39674;59.860;30.672;2023-06-14T02:38:24;101677.72;;;11.93;79.62
53758;BME280;39674;59.860;30.672;2023-06-14T02:40:53;101714.31;;;12.26;78.68
53758;BME280;39674;59.860;30.672;2023-06-14T02:43:23;101668.16;;;11.89;76.71
53758;BME280;39674;59.860;30.672;2023-06-14T02:45:51;101722.94;;;12.31;76.53
53758;BME280;39674;59.860;30.672;2023-06-14T02:48:22;101724.63;;;12.53;77.41
53758;BME280;39674;59.860;30.672;2023-06-14T02:50:50;101722.25;;;12.67;77.85
53758;BME280;39674;59.860;30.672;2023-06-14T02:53:19;101728.78;;;12.79;76.06
53758;BME280;39674;59.860;30.672;2023-06-14T02:55:48;101734.28;;;12.95;76.87
53758;BME280;39674;59.860;30.672;2023-06-14T02:58:16;101708.31;;;12.83;74.01
53758;BME280;39674;59.860;30.672;2023-06-14T03:00:47;101732.69;;;13.10;75.08
53758;BME280;39674;59.860;30.672;2023-06-14T03:03:15;101727.03;;;13.18;74.71
53758;BME280;39674;59.860;30.672;2023-06-14T03:05:52;101688.09;;;12.99;72.93
53758;BME280;39674;59.860;30.672;2023-06-14T03:08:25;101689.00;;;13.00;73.94
53758;BME280;39674;59.860;30.672;2023-06-14T03:10:59;101731.16;;;13.44;71.97
53758;BME280;39674;59.860;30.672;2023-06-14T03:13:29;101732.56;;;13.32;74.50
53758;BME280;39674;59.860;30.672;2023-06-14T03:16:01;101732.56;;;13.32;75.59
53758;BME280;39674;59.860;30.672;2023-06-14T03:18:32;101727.25;;;13.32;75.15
53758;BME280;39674;59.860;30.672;2023-06-14T03:21:03;101730.44;;;13.41;75.84
53758;BME280;39674;59.860;30.672;2023-06-14T03:23:35;101652.88;;;12.97;74.75
53758;BME280;39674;59.860;30.672;2023-06-14T03:26:05;101716.38;;;13.39;75.25
53758;BME280;39674;59.860;30.672;2023-06-14T03:28:36;101736.47;;;13.63;73.49
53758;BME280;39674;59.860;30.672;2023-06-14T03:31:06;101683.63;;;13.40;73.69
53758;BME280;39674;59.860;30.672;2023-06-14T03:33:36;101749.78;;;13.81;74.04
53758;BME280;39674;59.860;30.672;2023-06-14T03:36:05;101715.41;;;13.78;72.01
53758;BME280;39674;59.860;30.672;2023-06-14T03:38:35;101734.88;;;13.96;71.97
53758;BME280;39674;59.860;30.672;2023-06-14T03:41:07;101733.25;;;14.11;71.75
53758;BME280;39674;59.860;30.672;2023-06-14T03:43:38;101687.16;;;13.94;71.83
53758;BME280;39674;59.860;30.672;2023-06-14T03:46:09;101715.94;;;14.21;70.32
53758;BME280;39674;59.860;30.672;2023-06-14T03:48:37;101695.13;;;14.12;70.48
53758;BME280;39674;59.860;30.672;2023-06-14T03:51:06;101739.53;;;14.45;69.39
53758;BME280;39674;59.860;30.672;2023-06-14T03:53:34;101725.13;;;14.49;69.14
53758;BME280;39674;59.860;30.672;2023-06-14T03:56:04;101742.94;;;14.65;68.85
53758;BME280;39674;59.860;30.672;2023-06-14T03:58:40;101677.91;;;14.37;69.32
53758;BME280;39674;59.860;30.672;2023-06-14T04:01:10;101735.75;;;14.84;70.04
53758;BME280;39674;59.860;30.672;2023-06-14T04:03:39;101719.94;;;14.81;68.45
53758;BME280;39674;59.860;30.672;2023-06-14T04:06:11;101728.91;;;14.96;71.02
53758;BME280;39674;59.860;30.672;2023-06-14T04:08:46;101688.72;;;14.85;69.86
53758;BME280;39674;59.860;30.672;2023-06-14T04:11:16;101743.22;;;15.27;69.35
53758;BME280;39674;59.860;30.672;2023-06-14T04:13:45;101725.19;;;15.32;67.57
53758;BME280;39674;59.860;30.672;2023-06-14T04:16:15;101737.56;;;15.49;69.06
53758;BME280;39674;59.860;30.672;2023-06-14T04:18:44;101743.31;;;15.57;65.83
53758;BME280;39674;59.860;30.672;2023-06-14T04:21:15;101737.19;;;15.71;67.75
53758;BME280;39674;59.860;30.672;2023-06-14T04:23:48;101735.75;;;15.82;66.57
53758;BME280;39674;59.860;30.672;2023-06-14T04:26:23;101704.78;;;15.79;67.26
53758;BME280;39674;59.860;30.672;2023-06-14T04:28:58;101692.50;;;15.93;66.68
53758;BME280;39674;59.860;30.672;2023-06-14T04:31:32;101690.09;;;16.04;66.13
53758;BME280;39674;59.860;30.672;2023-06-14T04:34:04;101715.47;;;16.40;65.61
53758;BME280;39674;59.860;30.672;2023-06-14T04:36:34;101738.66;;;16.68;65.36
53758;BME280;39674;59.860;30.672;2023-06-14T04:39:04;101725.88;;;16.74;63.91
53758;BME280;39674;59.860;30.672;2023-06-14T04:41:32;101748.91;;;17.05;62.27
53758;BME280;39674;59.860;30.672;2023-06-14T04:44:02;101729.44;;;17.17;63.02
53758;BME280;39674;59.860;30.672;2023-06-14T04:46:37;101678.75;;;17.03;60.35
53758;BME280;39674;59.860;30.672;2023-06-14T04:49:16;101735.19;;;17.53;60.04
53758;BME280;39674;59.860;30.672;2023-06-14T04:51:45;101627.19;;;17.03;58.56
53758;BME280;39674;59.860;30.672;2023-06-14T04:54:18;101740.56;;;17.80;56.52
53758;BME280;39674;59.860;30.672;2023-06-14T04:56:47;101733.63;;;17.91;56.73
53758;BME280;39674;59.860;30.672;2023-06-14T04:59:16;101709.47;;;17.92;56.78
53758;BME280;39674;59.860;30.672;2023-06-14T05:01:46;101735.25;;;18.21;56.12
53758;BME280;39674;59.860;30.672;2023-06-14T05:04:15;101735.69;;;18.40;55.63
53758;BME280;39674;59.860;30.672;2023-06-14T05:06:44;101734.13;;;18.51;53.38
53758;BME280;39674;59.860;30.672;2023-06-14T05:09:15;101738.19;;;18.69;55.45
53758;BME280;39674;59.860;30.672;2023-06-14T05:11:47;101731.00;;;18.83;53.63
53758;BME280;39674;59.860;30.672;2023-06-14T05:14:17;101734.97;;;19.03;53.68
53758;BME280;39674;59.860;30.672;2023-06-14T05:16:50;101690.31;;;18.90;52.80
53758;BME280;39674;59.860;30.672;2023-06-14T05:19:20;101647.28;;;18.81;51.73
53758;BME280;39674;59.860;30.672;2023-06-14T05:21:49;101732.63;;;19.48;49.58
53758;BME280;39674;59.860;30.672;2023-06-14T05:24:18;101727.44;;;19.58;48.46
53758;BME280;39674;59.860;30.672;2023-06-14T05:26:46;101733.59;;;19.71;47.63
53758;BME280;39674;59.860;30.672;2023-06-14T05:29:16;101711.94;;;19.75;46.79
53758;BME280;39674;59.860;30.672;2023-06-14T05:31:44;101735.84;;;20.02;46.83
53758;BME280;39674;59.860;30.672;2023-06-14T05:34:15;101669.56;;;19.80;46.92
53758;BME280;39674;59.860;30.672;2023-06-14T05:36:44;101697.84;;;20.08;46.08
53758;BME280;39674;59.860;30.672;2023-06-14T05:39:13;101634.50;;;19.83;43.71
53758;BME280;39674;59.860;30.672;2023-06-14T05:41:44;101704.59;;;20.25;42.90
53758;BME280;39674;59.860;30.672;2023-06-14T05:44:16;101746.38;;;20.63;43.73
53758;BME280;39674;59.860;30.672;2023-06-14T05:46:45;101670.22;;;20.30;42.76
53758;BME280;39674;59.860;30.672;2023-06-14T05:49:15;101740.69;;;20.79;41.61
53758;BME280;39674;59.860;30.672;2023-06-14T05:51:44;101742.03;;;20.96;42.50
53758;BME280;39674;59.860;30.672;2023-06-14T05:54:13;101709.44;;;20.78;41.70
53758;BME280;39674;59.860;30.672;2023-06-14T05:56:42;101735.44;;;21.12;41.38
53758;BME280;39674;59.860;30.672;2023-06-14T05:59:20;101748.13;;;21.32;41.37
53758;BME280;39674;59.860;30.672;2023-06-14T06:01:54;101713.19;;;21.21;40.12
53758;BME280;39674;59.860;30.672;2023-06-14T06:04:27;101742.47;;;21.70;40.90
53758;BME280;39674;59.860;30.672;2023-06-14T06:07:00;101734.75;;;21.65;39.86
53758;BME280;39674;59.860;30.672;2023-06-14T06:09:31;101636.97;;;21.33;40.94
53758;BME280;39674;59.860;30.672;2023-06-14T06:12:02;101635.25;;;21.44;39.44
53758;BME280;39674;59.860;30.672;2023-06-14T06:14:34;101682.75;;;21.87;39.71
53758;BME280;39674;59.860;30.672;2023-06-14T06:17:02;101668.59;;;21.85;37.93
53758;BME280;39674;59.860;30.672;2023-06-14T06:19:35;101735.41;;;22.43;38.30
53758;BME280;39674;59.860;30.672;2023-06-14T06:22:04;101699.31;;;22.46;37.65
53758;BME280;39674;59.860;30.672;2023-06-14T06:24:33;101712.41;;;22.60;37.19
53758;BME280;39674;59.860;30.672;2023-06-14T06:27:04;101746.06;;;22.97;36.20
53758;BME280;39674;59.860;30.672;2023-06-14T06:29:34;101747.59;;;23.31;37.30
53758;BME280;39674;59.860;30.672;2023-06-14T06:32:05;101670.03;;;22.94;35.66
53758;BME280;39674;59.860;30.672;2023-06-14T06:34:37;101736.56;;;23.34;34.21
53758;BME280;39674;59.860;30.672;2023-06-14T06:37:06;101752.63;;;23.45;34.74
53758;BME280;39674;59.860;30.672;2023-06-14T06:39:35;101717.94;;;23.31;35.42
53758;BME280;39674;59.860;30.672;2023-06-14T06:42:03;101750.66;;;23.67;35.86
53758;BME280;39674;59.860;30.672;2023-06-14T06:44:39;101688.22;;;23.42;34.20
53758;BME280;39674;59.860;30.672;2023-06-14T06:47:07;101742.06;;;23.93;33.57
53758;BME280;39674;59.860;30.672;2023-06-14T06:49:38;101755.25;;;24.15;33.88
53758;BME280;39674;59.860;30.672;2023-06-14T06:52:07;101721.72;;;24.08;32.55
53758;BME280;39674;59.860;30.672;2023-06-14T06:54:41;101746.97;;;24.46;34.16
53758;BME280;39674;59.860;30.672;2023-06-14T06:57:11;101700.59;;;24.13;31.17
53758;BME280;39674;59.860;30.672;2023-06-14T06:59:40;101721.56;;;24.39;31.59
53758;BME280;39674;59.860;30.672;2023-06-14T07:02:11;101756.50;;;24.50;31.25
53758;BME280;39674;59.860;30.672;2023-06-14T07:04:41;101750.25;;;24.40;31.70
53758;BME280;39674;59.860;30.672;2023-06-14T07:07:09;101751.06;;;24.70;31.40
53758;BME280;39674;59.860;30.672;2023-06-14T07:09:38;101717.34;;;24.74;31.25
53758;BME280;39674;59.860;30.672;2023-06-14T07:12:09;101750.38;;;25.06;31.16
53758;BME280;39674;59.860;30.672;2023-06-14T07:14:38;101754.63;;;25.08;31.58
53758;BME280;39674;59.860;30.672;2023-06-14T07:17:11;101752.63;;;25.10;31.52
53758;BME280;39674;59.860;30.672;2023-06-14T07:19:43;101752.19;;;25.33;30.49
53758;BME280;39674;59.860;30.672;2023-06-14T07:22:16;101748.19;;;25.47;30.13
53758;BME280;39674;59.860;30.672;2023-06-14T07:24:46;101673.94;;;25.31;31.20
53758;BME280;39674;59.860;30.672;2023-06-14T07:27:18;101753.00;;;25.89;29.81
53758;BME280;39674;59.860;30.672;2023-06-14T07:29:48;101751.19;;;25.98;28.79
53758;BME280;39674;59.860;30.672;2023-06-14T07:32:17;101760.59;;;26.22;29.13
53758;BME280;39674;59.860;30.672;2023-06-14T07:34:50;101737.59;;;26.26;27.62
53758;BME280;39674;59.860;30.672;2023-06-14T07:37:18;101713.50;;;26.15;27.89
53758;BME280;39674;59.860;30.672;2023-06-14T07:39:47;101729.22;;;26.37;27.37
53758;BME280;39674;59.860;30.672;2023-06-14T07:42:16;101744.84;;;26.70;27.73
53758;BME280;39674;59.860;30.672;2023-06-14T07:44:48;101749.91;;;26.73;26.72
53758;BME280;39674;59.860;30.672;2023-06-14T07:47:21;101729.66;;;26.77;27.01
53758;BME280;39674;59.860;30.672;2023-06-14T07:49:52;101747.44;;;27.14;28.28
53758;BME280;39674;59.860;30.672;2023-06-14T07:52:21;101745.59;;;27.23;26.76
53758;BME280;39674;59.860;30.672;2023-06-14T07:54:51;101653.00;;;26.93;27.79
53758;BME280;39674;59.860;30.672;2023-06-14T07:57:20;101663.88;;;27.10;27.28
53758;BME280;39674;59.860;30.672;2023-06-14T07:59:49;101686.31;;;27.36;25.80
53758;BME280;39674;59.860;30.672;2023-06-14T08:02:18;101734.22;;;27.95;26.56
53758;BME280;39674;59.860;30.672;2023-06-14T08:04:51;101745.97;;;28.12;25.60
53758;BME280;39674;59.860;30.672;2023-06-14T08:07:21;101659.06;;;27.46;23.50
53758;BME280;39674;59.860;30.672;2023-06-14T08:09:51;101753.22;;;27.70;25.10
53758;BME280;39674;59.860;30.672;2023-06-14T08:12:20;101748.81;;;27.78;24.94
53758;BME280;39674;59.860;30.672;2023-06-14T08:14:49;101752.22;;;27.96;25.84
53758;BME280;39674;59.860;30.672;2023-06-14T08:17:21;101655.19;;;27.57;25.41
53758;BME280;39674;59.860;30.672;2023-06-14T08:19:51;101705.75;;;28.08;24.43
53758;BME280;39674;59.860;30.672;2023-06-14T08:22:21;101752.84;;;28.64;25.60
53758;BME280;39674;59.860;30.672;2023-06-14T08:24:51;101690.41;;;28.48;24.91
53758;BME280;39674;59.860;30.672;2023-06-14T08:27:24;101757.56;;;28.95;24.46
53758;BME280;39674;59.860;30.672;2023-06-14T08:30:09;101749.94;;;29.30;25.10
53758;BME280;39674;59.860;30.672;2023-06-14T08:32:38;101655.78;;;28.50;24.24
53758;BME280;39674;59.860;30.672;2023-06-14T08:35:09;101746.25;;;29.15;24.29
53758;BME280;39674;59.860;30.672;2023-06-14T08:37:39;101744.13;;;29.42;24.01
53758;BME280;39674;59.860;30.672;2023-06-14T08:40:19;101697.72;;;29.58;24.14
53758;BME280;39674;59.860;30.672;2023-06-14T08:42:51;101735.19;;;30.03;23.86
53758;BME280;39674;59.860;30.672;2023-06-14T08:45:19;101747.97;;;30.02;23.07
53758;BME280;39674;59.860;30.672;2023-06-14T08:47:50;101727.00;;;29.56;22.77
53758;BME280;39674;59.860;30.672;2023-06-14T08:50:27;101690.59;;;29.57;23.96
53758;BME280;39674;59.860;30.672;2023-06-14T08:53:00;101671.44;;;29.51;23.83
53758;BME280;39674;59.860;30.672;2023-06-14T08:55:30;101695.00;;;29.35;22.48
53758;BME280;39674;59.860;30.672;2023-06-14T08:58:00;101695.19;;;29.34;22.94
53758;BME280;39674;59.860;30.672;2023-06-14T09:00:32;101748.22;;;29.92;23.69
53758;BME280;39674;59.860;30.672;2023-06-14T09:03:07;101681.50;;;29.88;24.06
53758;BME280;39674;59.860;30.672;2023-06-14T09:05:44;101705.34;;;30.09;23.23
53758;BME280;39674;59.860;30.672;2023-06-14T09:08:18;101695.28;;;29.87;23.15
53758;BME280;39674;59.860;30.672;2023-06-14T09:10:51;101678.63;;;29.67;22.35
53758;BME280;39674;59.860;30.672;2023-06-14T09:13:25;101700.88;;;29.70;22.00
53758;BME280;39674;59.860;30.672;2023-06-14T09:15:57;101735.34;;;30.24;23.48
53758;BME280;39674;59.860;30.672;2023-06-14T09:18:40;101710.34;;;30.36;23.49
53758;BME280;39674;59.860;30.672;2023-06-14T09:21:16;101729.09;;;30.84;23.53
53758;BME280;39674;59.860;30.672;2023-06-14T09:23:57;101730.50;;;30.95;22.87
53758;BME280;39674;59.860;30.672;2023-06-14T09:26:26;101727.50;;;30.89;22.71
53758;BME280;39674;59.860;30.672;2023-06-14T09:28:54;101668.66;;;30.50;22.84
53758;BME280;39674;59.860;30.672;2023-06-14T09:31:25;101733.41;;;30.93;21.86
53758;BME280;39674;59.860;30.672;2023-06-14T09:33:59;101728.63;;;31.10;21.94
53758;BME280;39674;59.860;30.672;2023-06-14T09:36:32;101698.78;;;30.94;22.29
53758;BME280;39674;59.860;30.672;2023-06-14T09:39:05;101684.78;;;30.97;22.63
53758;BME280;39674;59.860;30.672;2023-06-14T09:41:36;101682.47;;;31.09;22.28
53758;BME280;39674;59.860;30.672;2023-06-14T09:44:05;101729.28;;;31.12;21.13
53758;BME280;39674;59.860;30.672;2023-06-14T09:46:35;101735.94;;;30.95;20.20
53758;BME280;39674;59.860;30.672;2023-06-14T09:49:09;101729.38;;;31.04;20.89
53758;BME280;39674;59.860;30.672;2023-06-14T09:51:43;101695.34;;;30.40;20.06
53758;BME280;39674;59.860;30.672;2023-06-14T09:54:23;101676.91;;;30.42;21.80
53758;BME280;39674;59.860;30.672;2023-06-14T09:57:00;101659.13;;;30.31;23.05
53758;BME280;39674;59.860;30.672;2023-06-14T09:59:33;101615.06;;;30.28;22.32
53758;BME280;39674;59.860;30.672;2023-06-14T10:02:09;101697.41;;;30.98;22.38
53758;BME280;39674;59.860;30.672;2023-06-14T10:04:48;101611.13;;;30.45;20.32
53758;BME280;39674;59.860;30.672;2023-06-14T10:07:42;101658.88;;;30.71;20.07
53758;BME280;39674;59.860;30.672;2023-06-14T10:10:16;101653.72;;;30.61;21.59
53758;BME280;39674;59.860;30.672;2023-06-14T10:12:51;101683.19;;;30.87;20.96
53758;BME280;39674;59.860;30.672;2023-06-14T10:15:28;101694.41;;;30.93;20.59
53758;BME280;39674;59.860;30.672;2023-06-14T10:18:07;101680.63;;;31.01;20.98
53758;BME280;39674;59.860;30.672;2023-06-14T10:20:58;101696.41;;;31.20;20.67
53758;BME280;39674;59.860;30.672;2023-06-14T10:23:41;101682.28;;;31.32;20.65
53758;BME280;39674;59.860;30.672;2023-06-14T10:26:51;101720.91;;;31.72;20.53
53758;BME280;39674;59.860;30.672;2023-06-14T10:29:26;101651.22;;;31.33;19.68
53758;BME280;39674;59.860;30.672;2023-06-14T10:32:31;101688.84;;;31.59;19.61
53758;BME280;39674;59.860;30.672;2023-06-14T10:35:09;101647.44;;;31.34;20.34
53758;BME280;39674;59.860;30.672;2023-06-14T10:37:47;101705.41;;;31.36;18.77
53758;BME280;39674;59.860;30.672;2023-06-14T10:40:30;101609.97;;;30.84;19.96
53758;BME280;39674;59.860;30.672;2023-06-14T10:43:22;101701.78;;;31.50;20.03
53758;BME280;39674;59.860;30.672;2023-06-14T10:46:18;101676.06;;;31.38;20.70
53758;BME280;39674;59.860;30.672;2023-06-14T10:49:01;101609.16;;;30.69;20.29
53758;BME280;39674;59.860;30.672;2023-06-14T10:52:00;101672.25;;;31.39;20.76
53758;BME280;39674;59.860;30.672;2023-06-14T10:54:34;101681.66;;;31.51;20.85
53758;BME280;39674;59.860;30.672;2023-06-14T10:57:15;101697.94;;;31.45;20.01
53758;BME280;39674;59.860;30.672;2023-06-14T10:59:54;101651.72;;;31.21;21.40
53758;BME280;39674;59.860;30.672;2023-06-14T11:02:49;101639.78;;;31.23;20.58
53758;BME280;39674;59.860;30.672;2023-06-14T11:05:27;101636.38;;;31.20;20.65
53758;BME280;39674;59.860;30.672;2023-06-14T11:08:15;101681.56;;;31.45;20.71
53758;BME280;39674;59.860;30.672;2023-06-14T11:10:52;101639.13;;;30.69;20.05
53758;BME280;39674;59.860;30.672;2023-06-14T11:13:29;101659.22;;;30.98;19.94
53758;BME280;39674;59.860;30.672;2023-06-14T11:16:12;101704.25;;;31.45;20.10
53758;BME280;39674;59.860;30.672;2023-06-14T11:18:54;101593.06;;;30.74;20.30
53758;BME280;39674;59.860;30.672;2023-06-14T11:21:24;101667.31;;;31.28;20.24
53758;BME280;39674;59.860;30.672;2023-06-14T11:24:01;101706.22;;;31.51;20.16
53758;BME280;39674;59.860;30.672;2023-06-14T11:26:33;101566.97;;;30.65;19.98
53758;BME280;39674;59.860;30.672;2023-06-14T11:29:05;101603.91;;;30.52;18.83
53758;BME280;39674;59.860;30.672;2023-06-14T11:31:43;101654.75;;;30.45;18.60
53758;BME280;39674;59.860;30.672;2023-06-14T11:34:14;101692.84;;;30.15;20.38
53758;BME280;39674;59.860;30.672;2023-06-14T11:36:43;101641.56;;;30.19;21.00
53758;BME280;39674;59.860;30.672;2023-06-14T11:39:13;101660.28;;;30.22;19.93
53758;BME280;39674;59.860;30.672;2023-06-14T11:41:54;101695.66;;;30.07;20.46
53758;BME280;39674;59.860;30.672;2023-06-14T11:44:46;101699.84;;;30.33;21.28
53758;BME280;39674;59.860;30.672;2023-06-14T11:47:22;101651.88;;;29.93;20.82
53758;BME280;39674;59.860;30.672;2023-06-14T11:49:56;101667.09;;;29.80;19.97
53758;BME280;39674;59.860;30.672;2023-06-14T11:52:28;101672.28;;;29.89;20.70
53758;BME280;39674;59.860;30.672;2023-06-14T11:55:00;101631.53;;;29.81;21.05
53758;BME280;39674;59.860;30.672;2023-06-14T11:57:39;101653.88;;;30.00;21.18
53758;BME280;39674;59.860;30.672;2023-06-14T12:00:24;101587.28;;;29.64;21.22
53758;BME280;39674;59.860;30.672;2023-06-14T12:03:08;101685.06;;;29.89;21.30
53758;BME280;39674;59.860;30.672;2023-06-14T12:05:41;101591.41;;;28.90;20.26
53758;BME280;39674;59.860;30.672;2023-06-14T12:08:12;101676.88;;;29.19;21.72
53758;BME280;39674;59.860;30.672;2023-06-14T12:10:51;101593.91;;;28.69;21.69
53758;BME280;39674;59.860;30.672;2023-06-14T12:13:21;101683.44;;;29.56;21.64
53758;BME280;39674;59.860;30.672;2023-06-14T12:16:01;101663.03;;;28.97;21.17
53758;BME280;39674;59.860;30.672;2023-06-14T12:18:36;101609.22;;;28.45;21.38
53758;BME280;39674;59.860;30.672;2023-06-14T12:21:09;101602.75;;;28.14;21.63
53758;BME280;39674;59.860;30.672;2023-06-14T12:23:45;101626.44;;;28.29;22.78
53758;BME280;39674;59.860;30.672;2023-06-14T12:26:20;101664.13;;;28.32;21.50
53758;BME280;39674;59.860;30.672;2023-06-14T12:31:35;101615.78;;;28.02;23.13
53758;BME280;39674;59.860;30.672;2023-06-14T12:34:16;101599.50;;;28.02;22.33
53758;BME280;39674;59.860;30.672;2023-06-14T12:36:54;101611.41;;;27.77;22.18
53758;BME280;39674;59.860;30.672;2023-06-14T12:39:27;101617.34;;;27.80;22.59
53758;BME280;39674;59.860;30.672;2023-06-14T12:41:58;101652.09;;;28.01;23.88
53758;BME280;39674;59.860;30.672;2023-06-14T12:44:27;101541.53;;;27.04;22.56
53758;BME280;39674;59.860;30.672;2023-06-14T12:47:08;101579.16;;;27.24;23.90
53758;BME280;39674;59.860;30.672;2023-06-14T12:49:52;101628.91;;;27.82;24.44
53758;BME280;39674;59.860;30.672;2023-06-14T12:52:35;101617.50;;;27.95;24.39
53758;BME280;39674;59.860;30.672;2023-06-14T12:55:10;101588.34;;;28.06;24.57
53758;BME280;39674;59.860;30.672;2023-06-14T12:57:52;101609.59;;;28.42;24.17
53758;BME280;39674;59.860;30.672;2023-06-14T13:00:34;101549.97;;;28.09;23.60
53758;BME280;39674;59.860;30.672;2023-06-14T13:03:10;101646.44;;;28.92;23.95
53758;BME280;39674;59.860;30.672;2023-06-14T13:05:43;101661.72;;;28.93;23.70
53758;BME280;39674;59.860;30.672;2023-06-14T13:08:25;101653.38;;;28.95;23.75
53758;BME280;39674;59.860;30.672;2023-06-14T13:10:54;101616.97;;;28.73;23.09
53758;BME280;39674;59.860;30.672;2023-06-14T13:13:27;101558.72;;;28.27;22.96